Aviation Digital Data Service (ADDS)

Output produced by METARs form (1127 UTC 19 January 2018)
found at http://www.aviationweather.gov/adds/metars/
 
LHBP 191100Z 22008KT 9999 RA SCT015 OVC022 05/03 Q1009 BECMG -RA
LHBP 191030Z 23005KT 9999 -RA FEW018 BKN032 06/03 Q1008 TEMPO RA
LHBP 191000Z 24008KT 9999 SCT030 BKN081 06/02 Q1008 TEMPO -RA
LHBP 190930Z 26005KT 230V290 9999 BKN047 05/03 Q1007 NOSIG
LHBP 190900Z 25005KT CAVOK 05/03 Q1007 NOSIG
LHBP 190830Z 22006KT 180V240 9999 FEW020 BKN060 04/03 Q1007 NOSIG
LHBP 190800Z 21008KT 9999 FEW018 SCT064 04/03 Q1007 NOSIG
LHBP 190730Z 21005KT 9999 FEW015 BKN090 04/03 Q1007 NOSIG
LHBP 190700Z 21006KT 9999 FEW010 BKN100 04/02 Q1006 NOSIG
LHBP 190630Z 21006KT CAVOK 04/02 Q1006 NOSIG
LHBP 190600Z 23009KT CAVOK 04/03 Q1006 NOSIG
LHBP 190530Z 23010KT CAVOK 04/03 Q1005 NOSIG